Time;durP1;ratioP1;P1;durP2;ratioP2;P2;SDS_P1;SDS_P2;PMS_P1;PMS_P2;Temp;Humidity;BMP_temperature;BMP_pressure;BME280_temperature;BME280_humidity;BME280_pressure;Samples;Min_cycle;Max_cycle;Signal;HPM_P1;HPM_P2
2021/07/06 00:00:09;;;;;;;9.27;8.63;;;17.00;99.90;;;;;;4942241;29;20192;-81
2021/07/06 00:02:39;;;;;;;9.47;8.87;;;17.00;99.90;;;;;;4948435;29;20235;-82
2021/07/06 00:05:08;;;;;;;6.10;5.60;;;17.00;99.90;;;;;;4947288;29;20203;-82
2021/07/06 00:07:35;;;;;;;6.40;5.80;;;16.90;99.90;;;;;;4961829;28;20711;-81
2021/07/06 00:10:04;;;;;;;5.77;5.27;;;16.70;99.90;;;;;;4944182;28;20196;-81
2021/07/06 00:12:31;;;;;;;6.00;5.60;;;16.60;99.90;;;;;;4940551;29;20224;-82
2021/07/06 00:14:59;;;;;;;8.37;7.87;;;16.50;99.90;;;;;;4937070;29;20208;-81
2021/07/06 00:17:26;;;;;;;9.23;8.63;;;16.40;99.90;;;;;;4940278;29;20199;-80
2021/07/06 00:19:53;;;;;;;6.13;5.63;;;16.40;99.90;;;;;;4944406;29;20212;-81
2021/07/06 00:22:20;;;;;;;10.37;9.67;;;16.40;99.90;;;;;;4946127;29;20192;-81
2021/07/06 00:24:47;;;;;;;8.67;8.07;;;16.50;99.90;;;;;;4946814;29;20550;-81
2021/07/06 00:27:14;;;;;;;10.43;9.83;;;16.60;99.90;;;;;;4943520;29;20668;-82
2021/07/06 00:29:41;;;;;;;5.10;4.70;;;16.60;99.90;;;;;;4946414;29;20202;-82
2021/07/06 00:32:10;;;;;;;5.20;4.70;;;16.60;99.90;;;;;;4942552;29;20195;-81
2021/07/06 00:34:37;;;;;;;5.10;4.70;;;16.80;99.90;;;;;;4941854;29;20210;-80
2021/07/06 00:37:05;;;;;;;4.60;4.20;;;16.90;99.90;;;;;;4940272;29;20301;-81
2021/07/06 00:39:32;;;;;;;4.10;3.80;;;17.00;99.90;;;;;;4944357;29;20196;-82
2021/07/06 00:41:59;;;;;;;4.67;4.27;;;17.10;99.90;;;;;;4944142;29;20574;-80
2021/07/06 00:44:26;;;;;;;4.67;4.27;;;17.20;99.90;;;;;;4936982;29;20219;-82
2021/07/06 00:46:53;;;;;;;4.60;4.20;;;17.30;99.90;;;;;;4954835;28;20639;-82
2021/07/06 00:49:21;;;;;;;4.60;4.23;;;17.40;99.90;;;;;;4942321;28;20205;-80
2021/07/06 00:51:47;;;;;;;4.67;4.37;;;17.40;99.90;;;;;;4944849;29;20257;-82
2021/07/06 00:54:14;;;;;;;4.73;4.33;;;17.50;99.90;;;;;;4941463;29;20214;-80
2021/07/06 00:56:44;;;;;;;4.63;4.27;;;17.50;99.90;;;;;;4938245;29;20196;-82
2021/07/06 00:59:11;;;;;;;4.80;4.40;;;17.50;99.90;;;;;;4945093;29;20252;-81
2021/07/06 01:01:38;;;;;;;4.40;4.10;;;17.60;99.90;;;;;;4945014;29;20206;-81
2021/07/06 01:04:05;;;;;;;4.90;4.60;;;17.60;99.90;;;;;;4940163;29;20224;-81
2021/07/06 01:06:34;;;;;;;5.40;4.73;;;17.60;99.90;;;;;;4943613;29;20221;-81
2021/07/06 01:09:01;;;;;;;4.50;4.13;;;17.60;99.90;;;;;;4942470;29;20210;-81
2021/07/06 01:11:28;;;;;;;4.60;4.30;;;17.70;99.90;;;;;;4943277;29;20268;-81
2021/07/06 01:13:55;;;;;;;4.40;4.10;;;17.80;99.90;;;;;;4946753;29;20205;-81
2021/07/06 01:16:22;;;;;;;4.90;4.60;;;17.80;99.90;;;;;;4942632;29;20202;-81
2021/07/06 01:18:49;;;;;;;5.47;5.07;;;17.80;99.90;;;;;;4939285;29;20203;-81
2021/07/06 01:21:16;;;;;;;5.10;4.70;;;17.80;99.90;;;;;;4941284;28;20201;-82
2021/07/06 01:23:44;;;;;;;4.80;4.40;;;17.80;99.90;;;;;;4942244;29;20250;-81
2021/07/06 01:26:11;;;;;;;5.10;4.70;;;17.80;99.90;;;;;;4934643;29;20247;-80
2021/07/06 01:28:39;;;;;;;5.03;4.60;;;17.90;99.90;;;;;;4938583;29;20634;-80
2021/07/06 01:31:06;;;;;;;4.70;4.30;;;17.90;99.90;;;;;;4942393;29;20290;-81
2021/07/06 01:33:34;;;;;;;4.53;4.20;;;17.90;99.90;;;;;;4942430;29;20264;-81
2021/07/06 01:36:05;;;;;;;5.00;4.60;;;17.90;99.90;;;;;;4942551;28;20657;-81
2021/07/06 01:38:33;;;;;;;4.77;4.40;;;17.90;99.90;;;;;;4938761;28;20195;-81
2021/07/06 01:41:02;;;;;;;4.63;4.33;;;17.80;99.90;;;;;;4946692;28;20273;-80
2021/07/06 01:43:29;;;;;;;4.73;4.43;;;17.80;99.90;;;;;;4939849;29;20226;-81
2021/07/06 01:45:56;;;;;;;4.40;4.10;;;17.80;99.90;;;;;;4943567;29;20185;-81
2021/07/06 01:48:23;;;;;;;4.50;4.20;;;17.70;99.90;;;;;;4943028;29;20206;-81
2021/07/06 01:50:49;;;;;;;5.00;4.57;;;17.50;99.90;;;;;;4943675;29;20222;-82
2021/07/06 01:53:18;;;;;;;4.50;4.20;;;17.30;99.90;;;;;;4940001;29;20224;-81
2021/07/06 01:55:46;;;;;;;4.70;4.40;;;17.10;99.90;;;;;;4938429;28;20719;-80
2021/07/06 01:58:16;;;;;;;4.70;4.40;;;16.90;99.90;;;;;;4939433;29;20557;-81
2021/07/06 02:00:45;;;;;;;4.70;4.40;;;16.80;99.90;;;;;;4942872;29;20196;-79
2021/07/06 02:03:13;;;;;;;5.60;5.10;;;16.60;99.90;;;;;;4954335;28;20414;-81
2021/07/06 02:05:41;;;;;;;9.33;8.63;;;16.60;99.90;;;;;;4939916;29;20607;-81
2021/07/06 02:08:10;;;;;;;5.63;5.23;;;16.40;99.90;;;;;;4941607;29;20207;-81
2021/07/06 02:10:39;;;;;;;3.30;3.00;;;16.30;99.90;;;;;;4934739;29;20213;-79
2021/07/06 02:13:09;;;;;;;8.13;7.43;;;16.30;99.90;;;;;;4942594;28;20245;-81
2021/07/06 02:15:37;;;;;;;4.33;3.07;;;16.20;99.90;;;;;;4940505;29;20201;-81
2021/07/06 02:18:05;;;;;;;5.87;5.37;;;16.20;99.90;;;;;;4941583;28;20191;-80
2021/07/06 02:20:32;;;;;;;9.20;8.60;;;16.10;99.90;;;;;;4941500;29;20200;-81
2021/07/06 02:22:59;;;;;;;10.10;9.50;;;16.10;99.90;;;;;;4942666;29;20213;-81
2021/07/06 02:25:26;;;;;;;9.90;9.30;;;16.10;99.90;;;;;;4939626;29;20194;-81
2021/07/06 02:27:53;;;;;;;9.50;8.80;;;16.10;99.90;;;;;;4941234;29;20213;-80
2021/07/06 02:30:22;;;;;;;8.87;8.37;;;16.00;99.90;;;;;;4933491;29;20750;-81
2021/07/06 02:32:51;;;;;;;12.30;11.57;;;15.90;99.90;;;;;;4948681;29;20232;-78
2021/07/06 02:35:18;;;;;;;9.97;9.37;;;15.90;99.90;;;;;;4948444;29;20198;-80
2021/07/06 02:37:46;;;;;;;9.87;9.27;;;15.90;99.90;;;;;;4939986;29;20205;-80
2021/07/06 02:40:15;;;;;;;11.10;10.40;;;15.80;99.90;;;;;;4944189;29;20201;-82
2021/07/06 02:45:51;;;;;;;;;;;;;;;;;;;;;
2021/07/06 02:48:35;;;;;;;9.63;8.97;;;15.70;99.90;;;;;;4920141;29;20571;-78
2021/07/06 02:51:02;;;;;;;10.37;9.67;;;15.70;99.90;;;;;;4946300;29;20218;-78
2021/07/06 02:53:29;;;;;;;10.80;10.10;;;15.70;99.90;;;;;;4946883;23;20439;-81
2021/07/06 02:55:56;;;;;;;13.40;12.60;;;15.70;99.90;;;;;;4920716;29;20230;-80
2021/07/06 02:58:22;;;;;;;10.40;9.80;;;15.60;99.90;;;;;;4917664;29;20212;-81
2021/07/06 03:00:49;;;;;;;11.30;10.60;;;15.70;99.90;;;;;;4927963;29;20208;-82
2021/07/06 03:03:16;;;;;;;10.70;9.93;;;15.70;99.90;;;;;;4926035;29;20222;-82
2021/07/06 03:05:44;;;;;;;10.50;9.90;;;15.70;99.90;;;;;;4928340;29;20816;-82
2021/07/06 03:08:11;;;;;;;12.20;11.30;;;15.60;99.90;;;;;;4929844;29;20209;-77
2021/07/06 03:10:40;;;;;;;10.60;10.00;;;15.60;99.90;;;;;;4925933;29;20203;-76
2021/07/06 03:13:08;;;;;;;10.80;10.17;;;15.60;99.90;;;;;;4934020;29;20306;-77
2021/07/06 03:15:35;;;;;;;11.13;10.43;;;15.50;99.90;;;;;;4932455;29;20235;-76
2021/07/06 03:18:05;;;;;;;11.33;10.63;;;15.50;99.90;;;;;;4926418;29;20265;-76
2021/07/06 03:20:32;;;;;;;10.50;9.80;;;15.60;99.90;;;;;;4929806;29;20226;-78
2021/07/06 03:23:00;;;;;;;10.30;9.70;;;15.70;99.90;;;;;;4923728;29;20215;-78
2021/07/06 03:25:28;;;;;;;10.10;9.50;;;15.80;99.90;;;;;;4927572;29;20200;-77
2021/07/06 03:27:56;;;;;;;9.87;9.33;;;15.80;99.90;;;;;;4938305;29;20207;-78
2021/07/06 03:30:25;;;;;;;11.10;10.50;;;15.80;99.90;;;;;;4933292;29;20211;-77
2021/07/06 03:32:54;;;;;;;10.30;9.70;;;15.70;99.90;;;;;;4923937;29;20212;-77
2021/07/06 03:35:21;;;;;;;10.63;9.50;;;15.70;99.90;;;;;;4921300;29;20203;-78
2021/07/06 03:37:48;;;;;;;10.80;10.03;;;15.70;99.90;;;;;;4919773;29;20207;-76
2021/07/06 03:40:18;;;;;;;10.70;9.83;;;15.70;99.90;;;;;;4921307;29;20200;-77
2021/07/06 03:42:44;;;;;;;8.90;8.27;;;15.80;99.90;;;;;;4931885;29;20552;-77
2021/07/06 03:45:13;;;;;;;5.20;4.73;;;15.90;99.90;;;;;;4932051;29;20195;-78
2021/07/06 03:47:41;;;;;;;5.00;4.60;;;16.00;99.90;;;;;;4930116;29;20222;-77
2021/07/06 03:50:10;;;;;;;5.13;4.73;;;16.10;99.90;;;;;;4931430;29;20197;-77
2021/07/06 03:52:37;;;;;;;5.17;4.77;;;16.00;99.90;;;;;;4930320;29;20206;-79
2021/07/06 03:55:05;;;;;;;4.70;4.40;;;16.00;99.90;;;;;;4933180;29;20229;-77
2021/07/06 03:57:33;;;;;;;4.97;4.57;;;15.90;99.90;;;;;;4934140;29;20184;-77
2021/07/06 04:00:03;;;;;;;5.50;4.97;;;15.80;99.90;;;;;;4934626;29;20204;-78
2021/07/06 04:02:36;;;;;;;9.77;9.20;;;15.70;99.90;;;;;;4934633;29;20209;-77
2021/07/06 04:05:03;;;;;;;10.13;9.53;;;15.60;99.90;;;;;;4933233;29;20201;-77
2021/07/06 04:07:30;;;;;;;5.40;5.00;;;15.60;99.90;;;;;;4935364;29;20217;-78
2021/07/06 04:09:57;;;;;;;5.50;5.10;;;15.60;99.90;;;;;;4925912;29;20188;-77
2021/07/06 04:12:24;;;;;;;5.30;4.90;;;15.70;99.90;;;;;;4927744;29;20193;-76
2021/07/06 04:14:52;;;;;;;5.57;5.07;;;15.70;99.90;;;;;;4933220;29;20227;-77
2021/07/06 04:17:19;;;;;;;5.87;5.40;;;15.80;99.90;;;;;;4923376;29;20255;-76
2021/07/06 04:19:46;;;;;;;5.80;5.40;;;15.90;99.90;;;;;;4928761;29;20220;-77
2021/07/06 04:22:13;;;;;;;6.10;5.70;;;15.90;99.90;;;;;;4932654;29;20612;-77
2021/07/06 04:24:40;;;;;;;5.90;5.50;;;15.90;99.90;;;;;;4925120;29;20235;-77
2021/07/06 04:27:07;;;;;;;6.07;5.67;;;16.00;99.90;;;;;;4930008;29;20281;-77
2021/07/06 04:29:34;;;;;;;5.70;5.30;;;16.10;99.90;;;;;;4931024;29;20209;-78
2021/07/06 04:32:02;;;;;;;5.87;5.20;;;16.10;99.90;;;;;;4930091;29;20234;-77
2021/07/06 04:34:29;;;;;;;5.00;4.70;;;16.10;99.90;;;;;;4932521;29;20282;-77
2021/07/06 04:36:55;;;;;;;3.07;2.87;;;16.20;99.90;;;;;;4926162;29;20227;-77
2021/07/06 04:39:22;;;;;;;7.67;7.07;;;16.40;99.90;;;;;;4928027;29;20198;-77
2021/07/06 04:41:49;;;;;;;7.00;6.50;;;16.60;99.90;;;;;;4933444;29;20218;-76
2021/07/06 04:44:16;;;;;;;5.60;5.17;;;16.80;99.90;;;;;;4930043;29;20219;-77
2021/07/06 04:46:43;;;;;;;4.20;3.90;;;17.20;99.90;;;;;;4932870;29;20207;-78
2021/07/06 04:49:11;;;;;;;4.50;4.10;;;17.60;99.90;;;;;;4930658;29;20206;-76
2021/07/06 04:51:38;;;;;;;7.40;6.90;;;17.80;99.90;;;;;;4930344;29;20215;-77
2021/07/06 04:54:05;;;;;;;5.77;5.27;;;18.00;99.90;;;;;;4922752;29;20234;-77
2021/07/06 04:56:32;;;;;;;3.10;2.80;;;18.50;99.90;;;;;;4924518;29;20200;-77
2021/07/06 04:58:58;;;;;;;5.73;5.23;;;18.90;99.90;;;;;;4920832;29;20196;-77
2021/07/06 05:01:26;;;;;;;7.47;6.97;;;19.10;99.90;;;;;;4925729;29;20232;-77
2021/07/06 05:03:54;;;;;;;11.17;8.97;;;19.60;99.90;;;;;;4930904;29;20294;-76
2021/07/06 05:06:22;;;;;;;9.20;8.50;;;19.90;99.90;;;;;;4926393;29;20219;-78
2021/07/06 05:08:49;;;;;;;8.80;7.93;;;19.90;99.90;;;;;;4924038;29;20225;-77
2021/07/06 05:11:16;;;;;;;7.93;7.23;;;19.80;99.90;;;;;;4926910;29;20207;-77
2021/07/06 05:13:43;;;;;;;8.67;7.97;;;19.70;99.90;;;;;;4927489;29;20223;-77
2021/07/06 05:16:10;;;;;;;7.00;6.50;;;19.50;99.90;;;;;;4925040;29;20202;-77
2021/07/06 05:18:37;;;;;;;10.13;7.27;;;19.70;99.90;;;;;;4924684;29;20203;-78
2021/07/06 05:21:04;;;;;;;9.13;8.30;;;20.00;99.90;;;;;;4920507;29;20194;-78
2021/07/06 05:23:32;;;;;;;7.50;6.80;;;20.20;99.90;;;;;;4920826;29;20250;-77
2021/07/06 05:25:59;;;;;;;7.37;6.97;;;20.10;99.90;;;;;;4928240;29;20682;-77
2021/07/06 05:28:26;;;;;;;7.40;6.70;;;19.90;99.90;;;;;;4928708;29;20218;-76
2021/07/06 05:30:53;;;;;;;7.10;6.60;;;19.70;99.90;;;;;;4924276;29;20203;-76
2021/07/06 05:33:19;;;;;;;6.70;6.20;;;19.40;99.90;;;;;;4923548;29;20215;-76
2021/07/06 05:35:46;;;;;;;8.47;6.90;;;19.40;99.90;;;;;;4925713;29;20209;-76
2021/07/06 05:38:13;;;;;;;8.07;7.47;;;19.30;99.90;;;;;;4923040;29;20194;-77
2021/07/06 05:40:43;;;;;;;7.53;7.03;;;19.40;99.90;;;;;;4919757;29;20201;-77
2021/07/06 05:43:11;;;;;;;7.90;7.10;;;19.50;99.90;;;;;;4920818;29;20229;-76
2021/07/06 05:45:38;;;;;;;8.87;8.07;;;20.10;99.90;;;;;;4923348;29;20233;-76
2021/07/06 05:48:05;;;;;;;8.10;7.60;;;21.00;99.90;;;;;;4925365;29;20318;-76
2021/07/06 05:50:32;;;;;;;8.50;7.87;;;22.10;99.90;;;;;;4926689;29;20199;-76
2021/07/06 05:52:59;;;;;;;4.93;4.20;;;22.40;99.90;;;;;;4920591;29;20259;-76
2021/07/06 05:55:26;;;;;;;3.93;3.50;;;23.20;99.90;;;;;;4919261;29;20196;-76
2021/07/06 05:57:54;;;;;;;7.20;6.60;;;23.00;99.90;;;;;;4914312;29;20196;-76
2021/07/06 06:00:21;;;;;;;8.03;6.70;;;23.20;99.90;;;;;;4925459;29;20192;-76
2021/07/06 06:02:50;;;;;;;5.87;5.43;;;23.30;99.90;;;;;;4919326;29;20749;-76
2021/07/06 06:05:17;;;;;;;4.60;4.20;;;23.70;99.90;;;;;;4926106;29;20222;-76
2021/07/06 06:07:46;;;;;;;4.00;3.80;;;24.20;99.90;;;;;;4923129;29;20260;-76
2021/07/06 06:10:13;;;;;;;2.90;2.80;;;25.10;99.90;;;;;;4922420;29;20263;-76
2021/07/06 06:12:40;;;;;;;3.33;2.80;;;25.50;99.90;;;;;;4923808;29;20228;-76
2021/07/06 06:15:10;;;;;;;7.03;6.63;;;26.10;99.90;;;;;;4917586;29;20204;-76
2021/07/06 06:17:37;;;;;;;7.57;6.77;;;26.80;99.90;;;;;;4916496;29;20187;-77
2021/07/06 06:20:05;;;;;;;7.00;6.40;;;26.80;99.90;;;;;;4921626;29;20203;-76
2021/07/06 06:22:32;;;;;;;7.00;6.50;;;26.70;99.90;;;;;;4916299;29;20251;-77
2021/07/06 06:24:58;;;;;;;6.50;6.10;;;27.00;99.90;;;;;;4919247;29;20691;-78
2021/07/06 06:27:25;;;;;;;6.40;6.10;;;27.40;99.90;;;;;;4915602;29;20204;-77
2021/07/06 06:29:52;;;;;;;6.50;6.10;;;27.80;99.90;;;;;;4923311;29;20208;-77
2021/07/06 06:32:23;;;;;;;6.47;6.07;;;28.20;99.90;;;;;;4925427;29;20294;-77
2021/07/06 06:34:50;;;;;;;7.07;6.47;;;28.30;99.90;;;;;;4932138;29;20219;-77
2021/07/06 06:37:16;;;;;;;7.03;6.53;;;28.40;99.90;;;;;;4927077;29;20199;-77
2021/07/06 06:39:44;;;;;;;6.50;6.10;;;28.30;99.90;;;;;;4922130;29;20266;-77
2021/07/06 06:42:11;;;;;;;6.40;6.00;;;28.40;99.90;;;;;;4925281;29;20199;-77
2021/07/06 06:44:38;;;;;;;7.10;6.60;;;28.70;99.90;;;;;;4921876;29;20227;-77
2021/07/06 06:47:05;;;;;;;7.10;6.50;;;28.70;99.90;;;;;;4925988;29;20195;-77
2021/07/06 06:49:34;;;;;;;6.77;6.27;;;29.00;99.90;;;;;;4924129;29;20270;-77
2021/07/06 06:52:01;;;;;;;6.73;6.17;;;29.30;99.90;;;;;;4928569;29;20207;-76
2021/07/06 06:54:28;;;;;;;6.80;6.30;;;29.40;99.90;;;;;;4924633;29;20216;-77
2021/07/06 06:56:55;;;;;;;6.57;6.17;;;29.50;99.90;;;;;;4929445;29;20192;-77
2021/07/06 06:59:22;;;;;;;6.87;6.33;;;29.60;99.90;;;;;;4928752;29;20684;-77
2021/07/06 07:01:49;;;;;;;7.37;6.97;;;29.00;99.90;;;;;;4923085;29;20203;-77
2021/07/06 07:04:16;;;;;;;8.77;8.27;;;27.90;99.90;;;;;;4928360;29;20640;-77
2021/07/06 07:06:44;;;;;;;9.10;8.50;;;27.10;99.90;;;;;;4925489;29;20198;-76
2021/07/06 07:09:12;;;;;;;8.33;7.67;;;26.40;99.90;;;;;;4927545;29;20204;-77
2021/07/06 07:11:39;;;;;;;8.50;7.90;;;26.60;99.90;;;;;;4922865;29;20742;-77
2021/07/06 07:14:05;;;;;;;8.50;7.90;;;27.00;99.90;;;;;;4929299;29;20218;-77
2021/07/06 07:16:32;;;;;;;8.53;8.00;;;27.40;99.90;;;;;;4924907;29;20264;-76
2021/07/06 07:18:59;;;;;;;8.63;8.03;;;27.90;99.90;;;;;;4921546;29;20188;-77
2021/07/06 07:21:26;;;;;;;8.77;8.07;;;28.20;99.90;;;;;;4924610;29;20264;-76
2021/07/06 07:23:54;;;;;;;8.67;8.03;;;28.40;99.90;;;;;;4929359;29;20218;-77
2021/07/06 07:26:20;;;;;;;8.83;8.23;;;28.50;99.90;;;;;;4926370;29;20196;-77
2021/07/06 07:28:47;;;;;;;8.60;8.10;;;28.50;99.90;;;;;;4929218;29;20276;-77
2021/07/06 07:31:14;;;;;;;8.80;8.17;;;28.50;99.90;;;;;;4930303;29;20202;-77
2021/07/06 07:33:41;;;;;;;8.97;8.27;;;29.00;99.90;;;;;;4923731;29;20264;-77
2021/07/06 07:36:08;;;;;;;7.30;6.70;;;29.10;99.90;;;;;;4932735;29;20218;-77
2021/07/06 07:38:35;;;;;;;8.80;8.10;;;28.50;99.90;;;;;;4926452;29;20199;-77
2021/07/06 07:41:03;;;;;;;8.40;7.80;;;27.90;99.90;;;;;;4928281;29;20728;-77
2021/07/06 07:43:29;;;;;;;8.57;7.97;;;27.80;99.90;;;;;;4927755;29;20207;-77
2021/07/06 07:45:56;;;;;;;8.97;8.27;;;28.20;99.90;;;;;;4920629;29;20200;-77
2021/07/06 07:48:23;;;;;;;8.43;7.93;;;28.70;99.90;;;;;;4921328;29;20200;-77
2021/07/06 07:50:50;;;;;;;9.10;8.50;;;29.10;99.90;;;;;;4928719;29;20195;-77
2021/07/06 07:53:17;;;;;;;8.60;8.00;;;29.20;99.90;;;;;;4923578;29;20821;-77
2021/07/06 07:55:43;;;;;;;8.57;8.07;;;28.80;99.90;;;;;;4926315;29;20679;-77
2021/07/06 07:58:12;;;;;;;8.60;8.00;;;28.50;99.90;;;;;;4925859;29;20239;-77
2021/07/06 08:00:38;;;;;;;9.00;8.40;;;28.10;99.90;;;;;;4926032;29;20203;-77
2021/07/06 08:03:05;;;;;;;9.00;8.30;;;27.80;99.90;;;;;;4921015;29;20226;-77
2021/07/06 08:05:32;;;;;;;8.60;8.10;;;27.70;99.90;;;;;;4925931;29;20191;-77
2021/07/06 08:07:59;;;;;;;8.67;7.97;;;27.90;99.90;;;;;;4924612;29;20207;-77
2021/07/06 08:10:25;;;;;;;8.60;8.00;;;28.20;99.90;;;;;;4921116;29;20224;-77
2021/07/06 08:12:52;;;;;;;8.80;8.10;;;28.20;99.90;;;;;;4927535;29;20218;-77
2021/07/06 08:15:20;;;;;;;8.43;7.93;;;28.30;99.90;;;;;;4923113;29;20184;-77
2021/07/06 08:17:47;;;;;;;8.60;8.10;;;28.60;99.90;;;;;;4926441;29;20205;-77
2021/07/06 08:20:14;;;;;;;8.60;8.00;;;29.10;99.90;;;;;;4926763;29;20199;-77
2021/07/06 08:22:41;;;;;;;9.00;8.50;;;29.40;99.90;;;;;;4925599;29;20211;-77
2021/07/06 08:25:09;;;;;;;9.10;8.50;;;29.70;99.90;;;;;;4922513;29;20195;-77
2021/07/06 08:27:36;;;;;;;9.00;8.30;;;30.10;99.90;;;;;;4926641;29;20557;-77
2021/07/06 08:30:04;;;;;;;9.70;8.90;;;30.60;99.90;;;;;;4922203;29;20211;-77
2021/07/06 08:32:32;;;;;;;9.20;8.60;;;30.30;99.90;;;;;;4922842;29;20200;-77
2021/07/06 08:35:00;;;;;;;8.80;8.30;;;31.00;99.90;;;;;;4918220;29;20658;-77
2021/07/06 08:37:27;;;;;;;8.67;8.07;;;31.50;99.90;;;;;;4924897;29;20244;-77
2021/07/06 08:39:54;;;;;;;8.37;7.87;;;31.40;99.90;;;;;;4921087;29;20657;-77
2021/07/06 08:42:22;;;;;;;8.50;8.00;;;31.50;99.90;;;;;;4928094;29;20614;-77
2021/07/06 08:44:49;;;;;;;8.07;7.57;;;31.90;99.90;;;;;;4920712;29;20686;-76
2021/07/06 08:47:16;;;;;;;8.70;8.20;;;31.80;99.90;;;;;;4921040;29;20196;-77
2021/07/06 08:49:48;;;;;;;9.10;8.40;;;31.80;99.90;;;;;;4925279;29;20323;-78
2021/07/06 08:52:17;;;;;;;8.83;8.23;;;31.70;99.90;;;;;;4922141;29;20200;-77
2021/07/06 08:54:44;;;;;;;9.27;8.57;;;31.50;99.90;;;;;;4957465;23;20263;-82
2021/07/06 08:57:11;;;;;;;8.63;8.10;;;31.50;99.90;;;;;;4941212;29;20198;-81
2021/07/06 08:59:39;;;;;;;8.97;8.47;;;31.20;99.90;;;;;;4938691;28;20283;-81
2021/07/06 09:02:06;;;;;;;8.80;8.30;;;31.10;99.90;;;;;;4943686;29;20254;-81
2021/07/06 09:04:44;;;;;;;9.17;8.57;;;30.90;99.90;;;;;;4935058;29;20235;-81
2021/07/06 09:07:12;;;;;;;8.87;8.37;;;30.90;99.90;;;;;;4924325;29;20196;-82
2021/07/06 09:09:39;;;;;;;8.53;7.90;;;30.90;99.90;;;;;;4920246;29;20637;-82
2021/07/06 09:12:07;;;;;;;9.10;8.27;;;31.20;99.90;;;;;;4924579;29;20199;-82
2021/07/06 09:14:38;;;;;;;9.03;8.23;;;31.30;99.90;;;;;;4927924;29;20218;-82
2021/07/06 09:17:09;;;;;;;8.37;7.87;;;31.50;99.90;;;;;;4928439;29;20203;-82
2021/07/06 09:19:37;;;;;;;9.07;8.37;;;31.50;99.90;;;;;;4922821;29;20208;-82
2021/07/06 09:22:17;;;;;;;8.93;8.43;;;31.30;99.90;;;;;;4925528;29;20183;-82
2021/07/06 09:24:46;;;;;;;8.70;8.20;;;31.40;99.90;;;;;;4925098;29;20587;-82
2021/07/06 09:27:27;;;;;;;8.67;8.17;;;31.20;99.90;;;;;;4923665;29;20195;-83
2021/07/06 09:30:13;;;;;;;9.40;8.73;;;31.10;99.90;;;;;;4919268;29;20215;-83
2021/07/06 09:32:42;;;;;;;9.03;8.43;;;30.90;99.90;;;;;;4927912;29;20218;-84
2021/07/06 09:35:11;;;;;;;8.60;8.00;;;30.80;99.90;;;;;;4931473;29;20222;-84
2021/07/06 09:37:53;;;;;;;8.90;8.30;;;30.80;99.90;;;;;;4933414;29;20664;-84
2021/07/06 09:40:26;;;;;;;9.20;8.47;;;31.00;99.90;;;;;;4925258;29;20204;-85
2021/07/06 09:43:15;;;;;;;9.10;8.50;;;31.40;99.90;;;;;;4930297;29;20191;-84
2021/07/06 09:45:42;;;;;;;9.03;8.43;;;31.80;99.90;;;;;;4922218;29;20214;-85
2021/07/06 09:48:10;;;;;;;9.67;8.97;;;31.90;99.90;;;;;;4925512;29;20649;-84
2021/07/06 09:50:37;;;;;;;9.23;8.63;;;31.40;99.90;;;;;;4931145;29;20237;-84
2021/07/06 09:53:23;;;;;;;8.73;8.23;;;30.70;99.90;;;;;;4931233;29;20195;-85
2021/07/06 09:55:50;;;;;;;9.00;8.40;;;30.30;99.90;;;;;;4930252;29;20206;-85
2021/07/06 09:58:17;;;;;;;8.57;8.07;;;30.00;99.90;;;;;;4925736;29;20206;-83
2021/07/06 10:00:44;;;;;;;8.50;7.90;;;29.90;99.90;;;;;;4928343;29;20218;-83
2021/07/06 10:03:11;;;;;;;8.40;7.70;;;29.90;99.90;;;;;;4929841;29;20714;-84
2021/07/06 10:05:41;;;;;;;8.63;8.03;;;30.10;99.90;;;;;;4927531;29;20202;-84
2021/07/06 10:08:10;;;;;;;8.93;8.13;;;30.10;99.90;;;;;;4926571;29;20578;-84
2021/07/06 10:10:37;;;;;;;8.37;7.87;;;30.30;99.90;;;;;;4926567;29;20200;-83
2021/07/06 10:13:05;;;;;;;8.73;8.13;;;30.70;99.90;;;;;;4926121;29;20688;-84
2021/07/06 10:15:31;;;;;;;8.57;7.97;;;30.60;99.90;;;;;;4928288;29;20195;-84
2021/07/06 10:17:59;;;;;;;8.93;8.33;;;30.40;99.90;;;;;;4921987;29;20262;-83
2021/07/06 10:20:27;;;;;;;8.80;8.30;;;30.30;99.90;;;;;;4923309;29;20204;-83
2021/07/06 10:22:56;;;;;;;9.13;8.53;;;30.20;99.90;;;;;;4929934;29;20199;-84
2021/07/06 10:25:27;;;;;;;8.40;7.90;;;30.00;99.90;;;;;;4930367;29;20211;-84
2021/07/06 10:27:57;;;;;;;8.20;7.70;;;29.80;99.90;;;;;;4928493;29;20199;-83
2021/07/06 10:30:28;;;;;;;8.40;7.80;;;29.40;99.90;;;;;;4933085;29;20242;-83
2021/07/06 10:32:57;;;;;;;8.10;7.60;;;29.10;99.90;;;;;;4925046;29;20196;-84
2021/07/06 10:35:45;;;;;;;8.63;8.07;;;28.80;99.90;;;;;;4928988;29;20215;-83
2021/07/06 10:38:42;;;;;;;8.37;7.87;;;28.40;99.90;;;;;;4922568;29;20199;-83
2021/07/06 10:41:14;;;;;;;8.83;8.20;;;27.90;99.90;;;;;;4929803;29;20314;-84
2021/07/06 10:44:06;;;;;;;8.57;8.07;;;27.80;99.90;;;;;;4921157;29;20227;-83
2021/07/06 10:46:48;;;;;;;8.10;7.60;;;27.50;99.90;;;;;;4914984;29;20208;-82
2021/07/06 10:49:27;;;;;;;8.13;7.63;;;27.10;99.90;;;;;;4923243;29;20195;-82
2021/07/06 10:51:54;;;;;;;8.87;8.27;;;26.90;99.90;;;;;;4928203;29;20196;-84
2021/07/06 10:54:30;;;;;;;8.70;8.20;;;26.80;99.90;;;;;;4909107;29;20243;-82
2021/07/06 10:57:13;;;;;;;9.10;8.50;;;26.80;99.90;;;;;;4915208;29;20655;-83
2021/07/06 10:59:41;;;;;;;8.03;7.40;;;27.00;99.90;;;;;;4922919;29;20215;-84
2021/07/06 11:02:08;;;;;;;7.20;6.80;;;27.10;99.90;;;;;;4925636;29;20199;-82
2021/07/06 11:05:08;;;;;;;7.90;7.40;;;27.20;99.90;;;;;;4925130;29;20282;-83
2021/07/06 11:07:51;;;;;;;8.00;7.50;;;27.30;99.90;;;;;;4926094;29;20192;-84
2021/07/06 11:10:20;;;;;;;8.50;7.93;;;27.30;99.90;;;;;;4922361;29;20649;-83
2021/07/06 11:12:50;;;;;;;7.87;7.47;;;27.20;99.90;;;;;;4923830;29;20188;-84
2021/07/06 11:15:27;;;;;;;8.10;7.60;;;27.30;99.90;;;;;;4921922;29;20215;-82
2021/07/06 11:18:02;;;;;;;8.20;7.70;;;27.50;99.90;;;;;;4918497;29;20195;-82
2021/07/06 11:20:39;;;;;;;8.30;7.80;;;27.80;99.90;;;;;;4929645;29;20218;-82
2021/07/06 11:23:08;;;;;;;8.47;7.87;;;27.70;99.90;;;;;;4921634;29;20282;-82
2021/07/06 11:25:40;;;;;;;7.70;7.20;;;27.70;99.90;;;;;;4928510;29;20656;-82
2021/07/06 11:28:11;;;;;;;7.80;7.33;;;27.40;99.90;;;;;;4921872;29;20211;-82
2021/07/06 11:30:43;;;;;;;8.13;7.63;;;27.20;99.90;;;;;;4931688;29;20195;-83
2021/07/06 11:33:11;;;;;;;7.93;7.43;;;26.80;99.90;;;;;;4927638;29;20200;-82
2021/07/06 11:35:40;;;;;;;7.20;6.80;;;26.50;99.90;;;;;;4928438;29;20601;-82
2021/07/06 11:38:10;;;;;;;7.20;6.70;;;26.20;99.90;;;;;;4921170;29;20652;-82
2021/07/06 11:40:38;;;;;;;7.30;6.80;;;26.00;99.90;;;;;;4923417;29;20216;-82
2021/07/06 11:43:05;;;;;;;7.00;6.60;;;25.70;99.90;;;;;;4929007;29;20204;-82
2021/07/06 11:45:34;;;;;;;7.10;6.70;;;25.70;99.90;;;;;;4919479;29;20204;-82
2021/07/06 11:48:12;;;;;;;7.03;6.60;;;25.70;99.90;;;;;;4930550;29;20191;-81
2021/07/06 11:50:40;;;;;;;7.07;6.67;;;25.60;99.90;;;;;;4929716;29;20263;-83
2021/07/06 11:53:08;;;;;;;6.83;6.43;;;25.70;99.90;;;;;;4925971;29;20192;-82
2021/07/06 11:55:37;;;;;;;7.00;6.60;;;26.00;99.90;;;;;;4926859;29;20188;-82
2021/07/06 11:58:06;;;;;;;7.00;6.60;;;26.20;99.90;;;;;;4936658;29;20204;-82
2021/07/06 12:00:36;;;;;;;7.10;6.70;;;26.50;99.90;;;;;;4919021;29;20200;-83
2021/07/06 12:03:25;;;;;;;7.10;6.70;;;26.80;99.90;;;;;;4923667;29;20196;-82
2021/07/06 12:05:53;;;;;;;6.70;6.30;;;26.90;99.90;;;;;;4937601;29;20203;-82
2021/07/06 12:08:22;;;;;;;6.47;6.10;;;27.00;99.90;;;;;;4922140;29;20281;-82
2021/07/06 12:11:05;;;;;;;6.80;6.40;;;27.00;99.90;;;;;;4927090;29;20203;-82
2021/07/06 12:13:33;;;;;;;6.60;6.20;;;26.80;99.90;;;;;;4931589;29;20219;-82
2021/07/06 12:16:04;;;;;;;6.57;6.27;;;26.50;99.90;;;;;;4922545;29;20217;-83
2021/07/06 12:18:33;;;;;;;6.43;6.10;;;26.40;99.90;;;;;;4920474;29;20218;-82
2021/07/06 12:21:03;;;;;;;6.63;6.30;;;26.20;99.90;;;;;;4933205;29;20219;-82
2021/07/06 12:23:31;;;;;;;6.53;6.23;;;26.10;99.90;;;;;;4926319;29;20215;-81
2021/07/06 12:26:00;;;;;;;6.70;6.30;;;26.10;99.90;;;;;;4926254;29;20208;-82
2021/07/06 12:28:27;;;;;;;6.60;6.20;;;26.10;99.90;;;;;;4917220;29;20540;-82
2021/07/06 12:31:31;;;;;;;6.30;6.00;;;26.20;99.90;;;;;;4924510;29;20183;-82
2021/07/06 12:34:10;;;;;;;6.77;6.47;;;26.40;99.90;;;;;;4913289;29;20228;-82
2021/07/06 12:36:39;;;;;;;7.00;6.60;;;26.60;99.90;;;;;;4928402;29;20645;-82
2021/07/06 12:39:21;;;;;;;6.50;6.10;;;26.70;99.90;;;;;;4924120;29;20564;-82
2021/07/06 12:41:52;;;;;;;6.30;6.00;;;26.80;99.90;;;;;;4929153;29;20200;-83
2021/07/06 12:44:33;;;;;;;6.77;6.20;;;26.90;99.90;;;;;;4930474;29;20719;-82
2021/07/06 12:47:21;;;;;;;6.67;6.27;;;26.80;99.90;;;;;;4914896;29;20199;-82
2021/07/06 12:49:52;;;;;;;6.80;6.30;;;26.50;99.90;;;;;;4930411;29;20196;-82
2021/07/06 12:52:21;;;;;;;6.80;6.30;;;26.20;99.90;;;;;;4924196;29;20215;-82
2021/07/06 12:54:48;;;;;;;6.90;6.40;;;26.00;99.90;;;;;;4921363;29;20231;-82
2021/07/06 12:57:26;;;;;;;6.63;6.23;;;25.90;99.90;;;;;;4922707;29;20199;-82